Observations for BOLZANO CIV IT-AFB, Italy (LIPB)

LIPB 191950Z VRB02KT 9999 BKN055 14/14 Q1016
LIPB 191950Z VRB02KT 9999 BKN055 14/14 Q1016 RMK MON INVIS
LIPB 191850Z 00000KT 9999 BKN055 15/14 Q1015
LIPB 191850Z 00000KT 9999 BKN055 15/14 Q1015 RMK MON INVIS
LIPB 191750Z 00000KT 9999 BKN055 15/14 Q1016
LIPB 191750Z 00000KT 9999 BKN055 15/14 Q1016 RMK MON INVIS
LIPB 191650Z 23003KT 9999 FEW020 BKN050 15/14 Q1015 
LIPB 191650Z 23003KT 9999 FEW020 BKN050 15/14 Q1015 RMK MON W CLD SCT
LIPB 191550Z VRB01KT 9999 FEW020 BKN050 BKN070 16/14 Q1015  
LIPB 191550Z VRB01KT 9999 FEW020 BKN050 BKN070 16/14 Q1015 RMK MON CLD CIME
LIPB 191450Z 00000KT 9999 BKN040 BKN060 16/14 Q1015 
LIPB 191450Z 00000KT 9999 BKN040 BKN060 16/14 Q1015 RMK MON CLD SCT
LIPB 191350Z 00000KT 9999 FEW020 BKN040 BKN060 16/14 Q1015  
LIPB 191350Z 00000KT 9999 FEW020 BKN040 BKN060 16/14 Q1015 RMK MON CLD CIME
LIPB 191250Z 29003KT 9999 FEW030 BKN050 OVC060 16/15 Q1015  
LIPB 191250Z 29003KT 9999 FEW030 BKN050 OVC060 16/15 Q1015 RMK MON GEN INC
LIPB 191150Z 01002KT 9000 FEW020 BKN050 OVC060 16/14 Q1015  
LIPB 191150Z 01002KT 9000 FEW020 BKN050 OVC060 16/14 Q1015 RMK MON GEN INC
LIPB 191050Z 00000KT 6000 RA FEW020 BKN050 OVC060 14/14 Q1016   
LIPB 191050Z 00000KT 6000 RA FEW020 BKN050 OVC060 14/14 Q1016 RMK MON CLD SCT
LIPB 190950Z 30002KT 6000 FEW020 BKN050 OVC060 14/14 Q1016  
LIPB 190950Z 30002KT 6000 FEW020 BKN050 OVC060 14/14 Q1016 RMK MON W GEN INC
LIPB 190850Z 14002KT 5000 BR FEW015 SCT030 OVC060 14/14 Q1016   
LIPB 190850Z 14002KT 5000 BR FEW015 SCT030 OVC060 14/14 Q1016 RMK MON GEN INC
LIPB 190750Z 00000KT 5000 BR SCT015 SCT030 OVC055 14/13 Q1016   
LIPB 190750Z 00000KT 5000 BR SCT015 SCT030 OVC055 14/13 Q1016 RMK MON W AND S INVIS
LIPB 190650Z VRB02KT 6000 SCT030 SCT040 OVC060 13/13 Q1016  
LIPB 190650Z VRB02KT 6000 SCT030 SCT040 OVC060 13/13 Q1016 RMK MON W INVIS
LIPB 190550Z 00000KT 6000 FEW030 SCT050 OVC065 13/13 Q1015 REDZ 
LIPB 190550Z 00000KT 6000 FEW030 SCT050 OVC065 13/13 Q1015 REDZ RMK MON W INVIS
LIPB 190450Z 12002KT 9999 DZ SCT050 BKN070 13/13 Q1015  
LIPB 190450Z 12002KT 9999 DZ SCT050 BKN070 13/13 Q1015 RMK MON INVIS
LIPB 182050Z VRB02KT 9999 FEW040 BKN080 13/12 Q1017 
LIPB 182050Z VRB02KT 9999 FEW040 BKN080 13/12 Q1017 RMK MON INVIS
LIPB 181950Z 00000KT 9999 SCT070 BKN100 12/11 Q1017 
LIPB 181950Z 00000KT 9999 SCT070 BKN100 12/11 Q1017 RMK MON INVIS